sensor_id;sensor_type;location;lat;lon;timestamp;P1;durP1;ratioP1;P2;durP2;ratioP2
26634;SDS011;14490;54.208;37.686;2023-12-14T00:02:03;9.55;;;2.30;;
26634;SDS011;14490;54.208;37.686;2023-12-14T00:04:31;14.70;;;1.98;;
26634;SDS011;14490;54.208;37.686;2023-12-14T00:07:01;12.27;;;1.90;;
26634;SDS011;14490;54.208;37.686;2023-12-14T00:09:29;24.40;;;2.30;;
26634;SDS011;14490;54.208;37.686;2023-12-14T00:11:57;16.50;;;4.15;;
26634;SDS011;14490;54.208;37.686;2023-12-14T00:14:25;9.55;;;1.75;;
26634;SDS011;14490;54.208;37.686;2023-12-14T00:16:53;6.53;;;1.67;;
26634;SDS011;14490;54.208;37.686;2023-12-14T00:19:20;18.40;;;2.42;;
26634;SDS011;14490;54.208;37.686;2023-12-14T00:21:50;11.60;;;1.65;;
26634;SDS011;14490;54.208;37.686;2023-12-14T00:24:19;26.48;;;2.13;;
26634;SDS011;14490;54.208;37.686;2023-12-14T00:26:48;1.27;;;0.73;;
26634;SDS011;14490;54.208;37.686;2023-12-14T00:29:17;23.00;;;2.80;;
26634;SDS011;14490;54.208;37.686;2023-12-14T00:31:44;21.33;;;2.30;;
26634;SDS011;14490;54.208;37.686;2023-12-14T00:34:18;10.75;;;2.80;;
26634;SDS011;14490;54.208;37.686;2023-12-14T00:36:45;20.98;;;1.85;;
26634;SDS011;14490;54.208;37.686;2023-12-14T00:39:13;31.85;;;3.10;;
26634;SDS011;14490;54.208;37.686;2023-12-14T00:41:43;24.95;;;2.50;;
26634;SDS011;14490;54.208;37.686;2023-12-14T00:44:11;20.77;;;2.80;;
26634;SDS011;14490;54.208;37.686;2023-12-14T00:46:38;13.77;;;2.58;;
26634;SDS011;14490;54.208;37.686;2023-12-14T00:49:06;15.27;;;1.92;;
26634;SDS011;14490;54.208;37.686;2023-12-14T00:51:34;14.40;;;1.98;;
26634;SDS011;14490;54.208;37.686;2023-12-14T00:54:05;17.58;;;1.80;;
26634;SDS011;14490;54.208;37.686;2023-12-14T00:56:33;13.05;;;2.75;;
26634;SDS011;14490;54.208;37.686;2023-12-14T00:59:03;24.90;;;2.15;;
26634;SDS011;14490;54.208;37.686;2023-12-14T01:01:30;20.70;;;2.17;;
26634;SDS011;14490;54.208;37.686;2023-12-14T01:03:58;25.85;;;2.65;;
26634;SDS011;14490;54.208;37.686;2023-12-14T01:06:25;18.67;;;2.58;;
26634;SDS011;14490;54.208;37.686;2023-12-14T01:08:53;20.80;;;2.33;;
26634;SDS011;14490;54.208;37.686;2023-12-14T01:11:20;24.13;;;3.00;;
26634;SDS011;14490;54.208;37.686;2023-12-14T01:13:48;35.03;;;2.63;;
26634;SDS011;14490;54.208;37.686;2023-12-14T01:16:17;21.30;;;2.80;;
26634;SDS011;14490;54.208;37.686;2023-12-14T01:18:44;23.10;;;2.60;;
26634;SDS011;14490;54.208;37.686;2023-12-14T01:21:12;24.77;;;2.35;;
26634;SDS011;14490;54.208;37.686;2023-12-14T01:23:39;24.33;;;2.78;;
26634;SDS011;14490;54.208;37.686;2023-12-14T01:26:07;20.23;;;2.92;;
26634;SDS011;14490;54.208;37.686;2023-12-14T01:28:34;17.50;;;2.53;;
26634;SDS011;14490;54.208;37.686;2023-12-14T01:31:02;9.70;;;1.67;;
26634;SDS011;14490;54.208;37.686;2023-12-14T01:33:31;18.02;;;2.28;;
26634;SDS011;14490;54.208;37.686;2023-12-14T01:35:58;20.45;;;2.80;;
26634;SDS011;14490;54.208;37.686;2023-12-14T01:38:26;17.35;;;1.65;;
26634;SDS011;14490;54.208;37.686;2023-12-14T01:40:53;28.33;;;1.98;;
26634;SDS011;14490;54.208;37.686;2023-12-14T01:43:21;20.05;;;2.28;;
26634;SDS011;14490;54.208;37.686;2023-12-14T01:45:48;20.52;;;2.63;;
26634;SDS011;14490;54.208;37.686;2023-12-14T01:48:16;32.20;;;3.00;;
26634;SDS011;14490;54.208;37.686;2023-12-14T01:50:45;16.77;;;2.22;;
26634;SDS011;14490;54.208;37.686;2023-12-14T01:53:12;28.60;;;2.88;;
26634;SDS011;14490;54.208;37.686;2023-12-14T01:55:39;26.23;;;2.20;;
26634;SDS011;14490;54.208;37.686;2023-12-14T01:58:07;26.55;;;2.60;;
26634;SDS011;14490;54.208;37.686;2023-12-14T02:00:36;14.77;;;2.20;;
26634;SDS011;14490;54.208;37.686;2023-12-14T02:03:09;7.20;;;3.00;;
26634;SDS011;14490;54.208;37.686;2023-12-14T02:05:36;21.08;;;2.05;;
26634;SDS011;14490;54.208;37.686;2023-12-14T02:08:06;28.73;;;2.60;;
26634;SDS011;14490;54.208;37.686;2023-12-14T02:10:34;25.92;;;2.20;;
26634;SDS011;14490;54.208;37.686;2023-12-14T02:13:02;14.90;;;2.92;;
26634;SDS011;14490;54.208;37.686;2023-12-14T02:15:30;28.88;;;2.75;;
26634;SDS011;14490;54.208;37.686;2023-12-14T02:17:57;34.03;;;2.90;;
26634;SDS011;14490;54.208;37.686;2023-12-14T02:20:27;17.80;;;1.55;;
26634;SDS011;14490;54.208;37.686;2023-12-14T02:22:56;12.25;;;1.65;;
26634;SDS011;14490;54.208;37.686;2023-12-14T02:25:24;24.95;;;2.10;;
26634;SDS011;14490;54.208;37.686;2023-12-14T02:27:51;23.92;;;2.85;;
26634;SDS011;14490;54.208;37.686;2023-12-14T02:30:19;13.32;;;1.73;;
26634;SDS011;14490;54.208;37.686;2023-12-14T02:32:50;23.33;;;2.75;;
26634;SDS011;14490;54.208;37.686;2023-12-14T02:35:18;22.92;;;2.88;;
26634;SDS011;14490;54.208;37.686;2023-12-14T02:37:47;9.90;;;1.83;;
26634;SDS011;14490;54.208;37.686;2023-12-14T02:40:18;18.55;;;2.63;;
26634;SDS011;14490;54.208;37.686;2023-12-14T02:42:59;21.95;;;2.30;;
26634;SDS011;14490;54.208;37.686;2023-12-14T02:45:26;25.00;;;2.00;;
26634;SDS011;14490;54.208;37.686;2023-12-14T02:47:54;11.88;;;1.90;;
26634;SDS011;14490;54.208;37.686;2023-12-14T02:50:22;20.85;;;2.38;;
26634;SDS011;14490;54.208;37.686;2023-12-14T02:52:50;32.65;;;2.70;;
26634;SDS011;14490;54.208;37.686;2023-12-14T02:55:20;23.00;;;1.90;;
26634;SDS011;14490;54.208;37.686;2023-12-14T02:57:49;21.97;;;1.90;;
26634;SDS011;14490;54.208;37.686;2023-12-14T03:00:16;42.78;;;3.50;;
26634;SDS011;14490;54.208;37.686;2023-12-14T03:02:45;32.78;;;2.80;;
26634;SDS011;14490;54.208;37.686;2023-12-14T03:05:12;19.23;;;3.03;;
26634;SDS011;14490;54.208;37.686;2023-12-14T03:07:41;16.48;;;2.05;;
26634;SDS011;14490;54.208;37.686;2023-12-14T03:10:09;12.43;;;2.15;;
26634;SDS011;14490;54.208;37.686;2023-12-14T03:12:39;26.20;;;2.55;;
26634;SDS011;14490;54.208;37.686;2023-12-14T03:15:07;23.92;;;3.08;;
26634;SDS011;14490;54.208;37.686;2023-12-14T03:17:36;17.88;;;2.03;;
26634;SDS011;14490;54.208;37.686;2023-12-14T03:20:08;4.72;;;1.90;;
26634;SDS011;14490;54.208;37.686;2023-12-14T03:22:39;18.33;;;1.55;;
26634;SDS011;14490;54.208;37.686;2023-12-14T03:25:07;31.83;;;1.77;;
26634;SDS011;14490;54.208;37.686;2023-12-14T03:27:36;22.48;;;2.58;;
26634;SDS011;14490;54.208;37.686;2023-12-14T03:30:07;16.13;;;1.92;;
26634;SDS011;14490;54.208;37.686;2023-12-14T03:32:36;19.23;;;2.72;;
26634;SDS011;14490;54.208;37.686;2023-12-14T03:35:04;36.03;;;2.75;;
26634;SDS011;14490;54.208;37.686;2023-12-14T03:37:33;26.13;;;2.47;;
26634;SDS011;14490;54.208;37.686;2023-12-14T03:40:02;19.70;;;2.05;;
26634;SDS011;14490;54.208;37.686;2023-12-14T03:42:30;24.30;;;2.75;;
26634;SDS011;14490;54.208;37.686;2023-12-14T03:44:58;20.67;;;2.47;;
26634;SDS011;14490;54.208;37.686;2023-12-14T03:47:27;21.08;;;2.75;;
26634;SDS011;14490;54.208;37.686;2023-12-14T03:49:55;40.08;;;2.95;;
26634;SDS011;14490;54.208;37.686;2023-12-14T03:52:26;30.20;;;3.60;;
26634;SDS011;14490;54.208;37.686;2023-12-14T03:54:56;25.88;;;2.40;;
26634;SDS011;14490;54.208;37.686;2023-12-14T03:57:23;20.38;;;2.53;;
26634;SDS011;14490;54.208;37.686;2023-12-14T03:59:52;13.02;;;2.25;;
26634;SDS011;14490;54.208;37.686;2023-12-14T04:02:19;15.43;;;1.65;;
26634;SDS011;14490;54.208;37.686;2023-12-14T04:04:50;36.10;;;3.28;;
26634;SDS011;14490;54.208;37.686;2023-12-14T04:07:17;19.75;;;2.20;;
26634;SDS011;14490;54.208;37.686;2023-12-14T04:09:45;21.85;;;2.60;;
26634;SDS011;14490;54.208;37.686;2023-12-14T04:12:13;12.95;;;2.15;;
26634;SDS011;14490;54.208;37.686;2023-12-14T04:14:40;13.82;;;2.47;;
26634;SDS011;14490;54.208;37.686;2023-12-14T04:17:09;11.07;;;2.40;;
26634;SDS011;14490;54.208;37.686;2023-12-14T04:19:38;27.27;;;2.85;;
26634;SDS011;14490;54.208;37.686;2023-12-14T04:22:07;25.90;;;3.75;;
26634;SDS011;14490;54.208;37.686;2023-12-14T04:24:36;11.65;;;2.13;;
26634;SDS011;14490;54.208;37.686;2023-12-14T04:27:04;7.93;;;1.77;;
26634;SDS011;14490;54.208;37.686;2023-12-14T04:29:33;17.10;;;2.05;;
26634;SDS011;14490;54.208;37.686;2023-12-14T04:32:01;17.92;;;4.07;;
26634;SDS011;14490;54.208;37.686;2023-12-14T04:34:30;29.15;;;3.17;;
26634;SDS011;14490;54.208;37.686;2023-12-14T04:36:57;10.57;;;2.42;;
26634;SDS011;14490;54.208;37.686;2023-12-14T04:39:28;16.17;;;1.70;;
26634;SDS011;14490;54.208;37.686;2023-12-14T04:41:56;30.83;;;2.47;;
26634;SDS011;14490;54.208;37.686;2023-12-14T04:44:24;18.60;;;1.92;;
26634;SDS011;14490;54.208;37.686;2023-12-14T04:46:52;26.27;;;2.58;;
26634;SDS011;14490;54.208;37.686;2023-12-14T04:49:21;18.20;;;2.75;;
26634;SDS011;14490;54.208;37.686;2023-12-14T04:51:50;28.60;;;2.38;;
26634;SDS011;14490;54.208;37.686;2023-12-14T04:54:18;26.80;;;2.30;;
26634;SDS011;14490;54.208;37.686;2023-12-14T04:56:47;23.15;;;2.75;;
26634;SDS011;14490;54.208;37.686;2023-12-14T04:59:15;35.95;;;2.63;;
26634;SDS011;14490;54.208;37.686;2023-12-14T05:01:42;18.30;;;3.63;;
26634;SDS011;14490;54.208;37.686;2023-12-14T05:04:14;31.35;;;2.13;;
26634;SDS011;14490;54.208;37.686;2023-12-14T05:06:40;20.15;;;2.30;;
26634;SDS011;14490;54.208;37.686;2023-12-14T05:09:09;16.38;;;2.05;;
26634;SDS011;14490;54.208;37.686;2023-12-14T05:11:36;23.73;;;3.03;;
26634;SDS011;14490;54.208;37.686;2023-12-14T05:14:10;20.55;;;2.92;;
26634;SDS011;14490;54.208;37.686;2023-12-14T05:16:41;20.33;;;2.85;;
26634;SDS011;14490;54.208;37.686;2023-12-14T05:19:10;21.25;;;3.40;;
26634;SDS011;14490;54.208;37.686;2023-12-14T05:21:48;25.25;;;3.53;;
26634;SDS011;14490;54.208;37.686;2023-12-14T05:24:19;26.92;;;3.13;;
26634;SDS011;14490;54.208;37.686;2023-12-14T05:26:51;17.58;;;2.80;;
26634;SDS011;14490;54.208;37.686;2023-12-14T05:29:22;23.95;;;2.30;;
26634;SDS011;14490;54.208;37.686;2023-12-14T05:31:50;15.02;;;3.25;;
26634;SDS011;14490;54.208;37.686;2023-12-14T05:34:18;19.80;;;2.40;;
26634;SDS011;14490;54.208;37.686;2023-12-14T05:36:46;23.20;;;2.92;;
26634;SDS011;14490;54.208;37.686;2023-12-14T05:39:16;8.18;;;1.75;;
26634;SDS011;14490;54.208;37.686;2023-12-14T05:41:47;20.50;;;2.72;;
26634;SDS011;14490;54.208;37.686;2023-12-14T05:44:15;26.63;;;3.55;;
26634;SDS011;14490;54.208;37.686;2023-12-14T05:46:45;24.80;;;2.38;;
26634;SDS011;14490;54.208;37.686;2023-12-14T05:49:13;17.53;;;3.77;;
26634;SDS011;14490;54.208;37.686;2023-12-14T05:51:41;21.70;;;3.40;;
26634;SDS011;14490;54.208;37.686;2023-12-14T05:54:08;17.02;;;3.08;;
26634;SDS011;14490;54.208;37.686;2023-12-14T05:56:35;17.63;;;2.55;;
26634;SDS011;14490;54.208;37.686;2023-12-14T05:59:03;10.27;;;3.25;;
26634;SDS011;14490;54.208;37.686;2023-12-14T06:01:30;10.13;;;2.70;;
26634;SDS011;14490;54.208;37.686;2023-12-14T06:03:59;29.02;;;3.40;;
26634;SDS011;14490;54.208;37.686;2023-12-14T06:06:27;11.73;;;2.78;;
26634;SDS011;14490;54.208;37.686;2023-12-14T06:08:57;25.48;;;3.38;;
26634;SDS011;14490;54.208;37.686;2023-12-14T06:11:33;11.20;;;3.38;;
26634;SDS011;14490;54.208;37.686;2023-12-14T06:14:01;18.48;;;3.05;;
26634;SDS011;14490;54.208;37.686;2023-12-14T06:16:30;32.13;;;3.85;;
26634;SDS011;14490;54.208;37.686;2023-12-14T06:18:59;13.55;;;2.13;;
26634;SDS011;14490;54.208;37.686;2023-12-14T06:21:26;15.10;;;3.17;;
26634;SDS011;14490;54.208;37.686;2023-12-14T06:26:40;27.27;;;3.25;;
26634;SDS011;14490;54.208;37.686;2023-12-14T06:29:08;26.27;;;3.78;;
26634;SDS011;14490;54.208;37.686;2023-12-14T06:31:41;26.95;;;3.38;;
26634;SDS011;14490;54.208;37.686;2023-12-14T06:34:10;27.95;;;4.30;;
26634;SDS011;14490;54.208;37.686;2023-12-14T06:36:40;18.73;;;3.42;;
26634;SDS011;14490;54.208;37.686;2023-12-14T06:39:09;20.05;;;3.08;;
26634;SDS011;14490;54.208;37.686;2023-12-14T06:41:36;33.35;;;4.30;;
26634;SDS011;14490;54.208;37.686;2023-12-14T06:44:06;25.00;;;3.97;;
26634;SDS011;14490;54.208;37.686;2023-12-14T06:46:34;18.25;;;3.22;;
26634;SDS011;14490;54.208;37.686;2023-12-14T06:49:02;20.58;;;3.88;;
26634;SDS011;14490;54.208;37.686;2023-12-14T06:51:30;23.50;;;4.53;;
26634;SDS011;14490;54.208;37.686;2023-12-14T06:53:58;26.42;;;3.67;;
26634;SDS011;14490;54.208;37.686;2023-12-14T06:56:28;23.35;;;3.45;;
26634;SDS011;14490;54.208;37.686;2023-12-14T06:58:55;28.52;;;4.15;;
26634;SDS011;14490;54.208;37.686;2023-12-14T07:01:23;24.88;;;3.08;;
26634;SDS011;14490;54.208;37.686;2023-12-14T07:03:50;17.27;;;4.20;;
26634;SDS011;14490;54.208;37.686;2023-12-14T07:06:17;14.82;;;4.68;;
26634;SDS011;14490;54.208;37.686;2023-12-14T07:08:49;20.00;;;4.22;;
26634;SDS011;14490;54.208;37.686;2023-12-14T07:11:17;13.43;;;3.05;;
26634;SDS011;14490;54.208;37.686;2023-12-14T07:13:44;19.52;;;3.78;;
26634;SDS011;14490;54.208;37.686;2023-12-14T07:16:12;23.17;;;3.35;;
26634;SDS011;14490;54.208;37.686;2023-12-14T07:18:40;21.88;;;3.72;;
26634;SDS011;14490;54.208;37.686;2023-12-14T07:21:08;32.35;;;4.38;;
26634;SDS011;14490;54.208;37.686;2023-12-14T07:23:38;36.83;;;4.18;;
26634;SDS011;14490;54.208;37.686;2023-12-14T07:26:07;29.13;;;3.83;;
26634;SDS011;14490;54.208;37.686;2023-12-14T07:28:34;26.90;;;3.83;;
26634;SDS011;14490;54.208;37.686;2023-12-14T07:31:01;17.25;;;3.28;;
26634;SDS011;14490;54.208;37.686;2023-12-14T07:33:29;23.50;;;3.00;;
26634;SDS011;14490;54.208;37.686;2023-12-14T07:35:56;25.90;;;3.25;;
26634;SDS011;14490;54.208;37.686;2023-12-14T07:38:34;28.55;;;3.10;;
26634;SDS011;14490;54.208;37.686;2023-12-14T07:41:33;16.25;;;3.65;;
26634;SDS011;14490;54.208;37.686;2023-12-14T07:44:00;17.05;;;3.33;;
26634;SDS011;14490;54.208;37.686;2023-12-14T07:46:29;32.88;;;3.60;;
26634;SDS011;14490;54.208;37.686;2023-12-14T07:48:57;22.98;;;4.00;;
26634;SDS011;14490;54.208;37.686;2023-12-14T07:51:25;31.80;;;3.53;;
26634;SDS011;14490;54.208;37.686;2023-12-14T07:53:53;31.50;;;4.18;;
26634;SDS011;14490;54.208;37.686;2023-12-14T07:56:20;21.17;;;4.07;;
26634;SDS011;14490;54.208;37.686;2023-12-14T07:58:52;27.35;;;3.55;;
26634;SDS011;14490;54.208;37.686;2023-12-14T08:01:22;30.35;;;4.15;;
26634;SDS011;14490;54.208;37.686;2023-12-14T08:03:49;12.48;;;4.72;;
26634;SDS011;14490;54.208;37.686;2023-12-14T08:06:17;27.80;;;3.70;;
26634;SDS011;14490;54.208;37.686;2023-12-14T08:08:44;13.93;;;3.45;;
26634;SDS011;14490;54.208;37.686;2023-12-14T08:11:11;11.52;;;3.50;;
26634;SDS011;14490;54.208;37.686;2023-12-14T08:13:39;21.95;;;3.15;;
26634;SDS011;14490;54.208;37.686;2023-12-14T08:18:55;12.48;;;2.85;;
26634;SDS011;14490;54.208;37.686;2023-12-14T08:21:30;14.95;;;4.50;;
26634;SDS011;14490;54.208;37.686;2023-12-14T08:24:00;22.95;;;3.85;;
26634;SDS011;14490;54.208;37.686;2023-12-14T08:26:37;21.58;;;2.97;;
26634;SDS011;14490;54.208;37.686;2023-12-14T08:29:04;13.10;;;3.15;;
26634;SDS011;14490;54.208;37.686;2023-12-14T08:31:36;40.13;;;3.20;;
26634;SDS011;14490;54.208;37.686;2023-12-14T08:34:06;18.13;;;3.90;;
26634;SDS011;14490;54.208;37.686;2023-12-14T08:36:34;17.65;;;4.88;;
26634;SDS011;14490;54.208;37.686;2023-12-14T08:39:01;8.60;;;3.13;;
26634;SDS011;14490;54.208;37.686;2023-12-14T08:41:32;22.85;;;3.80;;
26634;SDS011;14490;54.208;37.686;2023-12-14T08:43:59;26.80;;;3.65;;
26634;SDS011;14490;54.208;37.686;2023-12-14T08:46:29;43.15;;;4.15;;
26634;SDS011;14490;54.208;37.686;2023-12-14T08:49:09;16.52;;;3.75;;
26634;SDS011;14490;54.208;37.686;2023-12-14T08:51:38;12.05;;;2.70;;
26634;SDS011;14490;54.208;37.686;2023-12-14T08:54:06;28.20;;;3.60;;
26634;SDS011;14490;54.208;37.686;2023-12-14T08:56:34;13.75;;;2.78;;
26634;SDS011;14490;54.208;37.686;2023-12-14T08:59:02;35.90;;;2.75;;
26634;SDS011;14490;54.208;37.686;2023-12-14T09:01:29;25.17;;;4.50;;
26634;SDS011;14490;54.208;37.686;2023-12-14T09:03:58;24.73;;;3.45;;
26634;SDS011;14490;54.208;37.686;2023-12-14T09:06:25;21.48;;;3.58;;
26634;SDS011;14490;54.208;37.686;2023-12-14T09:08:52;13.77;;;3.42;;
26634;SDS011;14490;54.208;37.686;2023-12-14T09:11:20;31.65;;;4.55;;
26634;SDS011;14490;54.208;37.686;2023-12-14T09:13:47;13.75;;;3.00;;
26634;SDS011;14490;54.208;37.686;2023-12-14T09:16:16;22.05;;;4.00;;
26634;SDS011;14490;54.208;37.686;2023-12-14T09:18:43;23.20;;;3.63;;
26634;SDS011;14490;54.208;37.686;2023-12-14T09:21:12;26.35;;;3.30;;
26634;SDS011;14490;54.208;37.686;2023-12-14T09:23:44;24.67;;;3.10;;
26634;SDS011;14490;54.208;37.686;2023-12-14T09:26:11;16.45;;;3.08;;
26634;SDS011;14490;54.208;37.686;2023-12-14T09:28:39;15.93;;;3.58;;
26634;SDS011;14490;54.208;37.686;2023-12-14T09:31:07;30.40;;;4.30;;
26634;SDS011;14490;54.208;37.686;2023-12-14T09:33:35;17.25;;;3.70;;
26634;SDS011;14490;54.208;37.686;2023-12-14T09:36:05;22.80;;;5.57;;
26634;SDS011;14490;54.208;37.686;2023-12-14T09:38:35;24.15;;;4.03;;
26634;SDS011;14490;54.208;37.686;2023-12-14T09:41:05;24.05;;;4.40;;
26634;SDS011;14490;54.208;37.686;2023-12-14T09:43:33;28.85;;;3.53;;
26634;SDS011;14490;54.208;37.686;2023-12-14T09:46:01;20.27;;;3.03;;
26634;SDS011;14490;54.208;37.686;2023-12-14T09:48:29;16.33;;;4.47;;
26634;SDS011;14490;54.208;37.686;2023-12-14T09:50:58;21.50;;;3.92;;
26634;SDS011;14490;54.208;37.686;2023-12-14T09:53:26;29.52;;;4.22;;
26634;SDS011;14490;54.208;37.686;2023-12-14T09:55:54;18.77;;;3.88;;
26634;SDS011;14490;54.208;37.686;2023-12-14T09:58:22;11.77;;;3.67;;
26634;SDS011;14490;54.208;37.686;2023-12-14T10:00:49;20.27;;;4.38;;
26634;SDS011;14490;54.208;37.686;2023-12-14T10:03:20;27.13;;;4.43;;
26634;SDS011;14490;54.208;37.686;2023-12-14T10:05:52;25.58;;;4.10;;
26634;SDS011;14490;54.208;37.686;2023-12-14T10:08:20;25.38;;;3.35;;
26634;SDS011;14490;54.208;37.686;2023-12-14T10:10:49;33.47;;;3.45;;
26634;SDS011;14490;54.208;37.686;2023-12-14T10:13:20;24.40;;;3.85;;
26634;SDS011;14490;54.208;37.686;2023-12-14T10:15:48;30.58;;;4.03;;
26634;SDS011;14490;54.208;37.686;2023-12-14T10:18:19;35.63;;;4.43;;
26634;SDS011;14490;54.208;37.686;2023-12-14T10:23:39;18.85;;;3.53;;
26634;SDS011;14490;54.208;37.686;2023-12-14T10:26:14;25.33;;;4.32;;
26634;SDS011;14490;54.208;37.686;2023-12-14T10:28:45;19.70;;;5.25;;
26634;SDS011;14490;54.208;37.686;2023-12-14T10:31:13;21.10;;;4.65;;
26634;SDS011;14490;54.208;37.686;2023-12-14T10:33:43;29.90;;;4.78;;
26634;SDS011;14490;54.208;37.686;2023-12-14T10:36:13;22.65;;;4.15;;
26634;SDS011;14490;54.208;37.686;2023-12-14T10:38:43;31.85;;;4.40;;
26634;SDS011;14490;54.208;37.686;2023-12-14T10:41:11;16.30;;;3.10;;
26634;SDS011;14490;54.208;37.686;2023-12-14T10:43:41;25.73;;;2.70;;
26634;SDS011;14490;54.208;37.686;2023-12-14T10:46:10;28.02;;;3.65;;
26634;SDS011;14490;54.208;37.686;2023-12-14T10:48:39;19.47;;;3.83;;
26634;SDS011;14490;54.208;37.686;2023-12-14T10:51:09;19.20;;;3.10;;
26634;SDS011;14490;54.208;37.686;2023-12-14T10:53:38;11.02;;;2.90;;
26634;SDS011;14490;54.208;37.686;2023-12-14T10:56:12;27.42;;;3.78;;
26634;SDS011;14490;54.208;37.686;2023-12-14T10:58:47;20.35;;;3.17;;
26634;SDS011;14490;54.208;37.686;2023-12-14T11:01:20;24.33;;;4.53;;
26634;SDS011;14490;54.208;37.686;2023-12-14T11:03:53;23.58;;;3.70;;
26634;SDS011;14490;54.208;37.686;2023-12-14T11:06:29;20.92;;;3.15;;
26634;SDS011;14490;54.208;37.686;2023-12-14T11:08:58;20.55;;;2.63;;
26634;SDS011;14490;54.208;37.686;2023-12-14T11:11:41;7.97;;;2.92;;
26634;SDS011;14490;54.208;37.686;2023-12-14T11:14:10;24.55;;;2.83;;
26634;SDS011;14490;54.208;37.686;2023-12-14T11:16:40;15.68;;;3.33;;
26634;SDS011;14490;54.208;37.686;2023-12-14T11:19:25;8.93;;;2.72;;
26634;SDS011;14490;54.208;37.686;2023-12-14T11:22:11;22.63;;;3.33;;
26634;SDS011;14490;54.208;37.686;2023-12-14T11:24:42;14.93;;;3.10;;
26634;SDS011;14490;54.208;37.686;2023-12-14T11:27:19;16.90;;;2.83;;
26634;SDS011;14490;54.208;37.686;2023-12-14T11:29:52;19.00;;;3.65;;
26634;SDS011;14490;54.208;37.686;2023-12-14T11:32:21;22.52;;;2.78;;
26634;SDS011;14490;54.208;37.686;2023-12-14T11:34:50;12.35;;;3.13;;
26634;SDS011;14490;54.208;37.686;2023-12-14T11:37:17;13.25;;;2.63;;
26634;SDS011;14490;54.208;37.686;2023-12-14T11:39:45;19.10;;;3.00;;
26634;SDS011;14490;54.208;37.686;2023-12-14T11:42:16;13.40;;;2.40;;
26634;SDS011;14490;54.208;37.686;2023-12-14T11:44:45;26.40;;;3.05;;
26634;SDS011;14490;54.208;37.686;2023-12-14T11:47:13;19.13;;;3.03;;
26634;SDS011;14490;54.208;37.686;2023-12-14T11:49:42;11.18;;;2.65;;
26634;SDS011;14490;54.208;37.686;2023-12-14T11:52:09;8.68;;;2.28;;
26634;SDS011;14490;54.208;37.686;2023-12-14T11:54:37;16.98;;;2.53;;
26634;SDS011;14490;54.208;37.686;2023-12-14T11:57:04;16.85;;;2.53;;
26634;SDS011;14490;54.208;37.686;2023-12-14T11:59:34;16.67;;;3.42;;
26634;SDS011;14490;54.208;37.686;2023-12-14T12:02:03;21.13;;;3.25;;
26634;SDS011;14490;54.208;37.686;2023-12-14T12:04:31;12.85;;;3.22;;
26634;SDS011;14490;54.208;37.686;2023-12-14T12:07:05;29.02;;;3.05;;
26634;SDS011;14490;54.208;37.686;2023-12-14T12:09:34;14.13;;;3.13;;
26634;SDS011;14490;54.208;37.686;2023-12-14T12:12:05;29.23;;;3.78;;
26634;SDS011;14490;54.208;37.686;2023-12-14T12:14:33;22.73;;;3.53;;
26634;SDS011;14490;54.208;37.686;2023-12-14T12:17:01;11.40;;;2.22;;
26634;SDS011;14490;54.208;37.686;2023-12-14T12:19:29;4.93;;;2.17;;
26634;SDS011;14490;54.208;37.686;2023-12-14T12:21:58;30.67;;;3.95;;
26634;SDS011;14490;54.208;37.686;2023-12-14T12:24:30;17.55;;;4.28;;
26634;SDS011;14490;54.208;37.686;2023-12-14T12:26:58;19.42;;;4.28;;
26634;SDS011;14490;54.208;37.686;2023-12-14T12:29:25;23.58;;;2.38;;
26634;SDS011;14490;54.208;37.686;2023-12-14T12:31:52;15.52;;;2.47;;
26634;SDS011;14490;54.208;37.686;2023-12-14T12:34:21;19.67;;;3.33;;
26634;SDS011;14490;54.208;37.686;2023-12-14T12:36:49;26.95;;;3.55;;
26634;SDS011;14490;54.208;37.686;2023-12-14T12:39:16;17.60;;;3.72;;
26634;SDS011;14490;54.208;37.686;2023-12-14T12:41:45;15.13;;;2.80;;
26634;SDS011;14490;54.208;37.686;2023-12-14T12:44:13;11.35;;;3.35;;
26634;SDS011;14490;54.208;37.686;2023-12-14T12:46:40;21.55;;;2.80;;
26634;SDS011;14490;54.208;37.686;2023-12-14T12:49:08;13.02;;;2.50;;
26634;SDS011;14490;54.208;37.686;2023-12-14T12:51:35;22.60;;;3.42;;
26634;SDS011;14490;54.208;37.686;2023-12-14T12:54:03;18.42;;;3.58;;
26634;SDS011;14490;54.208;37.686;2023-12-14T12:56:30;16.85;;;3.00;;
26634;SDS011;14490;54.208;37.686;2023-12-14T12:58:59;35.20;;;3.38;;
26634;SDS011;14490;54.208;37.686;2023-12-14T13:01:26;19.90;;;3.53;;
26634;SDS011;14490;54.208;37.686;2023-12-14T13:03:53;20.55;;;3.33;;
26634;SDS011;14490;54.208;37.686;2023-12-14T13:06:23;14.43;;;4.07;;
26634;SDS011;14490;54.208;37.686;2023-12-14T13:08:51;20.02;;;4.25;;
26634;SDS011;14490;54.208;37.686;2023-12-14T13:11:19;22.45;;;4.20;;
26634;SDS011;14490;54.208;37.686;2023-12-14T13:13:50;15.43;;;3.15;;
26634;SDS011;14490;54.208;37.686;2023-12-14T13:16:19;14.60;;;3.50;;
26634;SDS011;14490;54.208;37.686;2023-12-14T13:18:47;24.45;;;3.28;;
26634;SDS011;14490;54.208;37.686;2023-12-14T13:21:15;15.02;;;3.25;;
26634;SDS011;14490;54.208;37.686;2023-12-14T13:23:42;23.42;;;3.83;;
26634;SDS011;14490;54.208;37.686;2023-12-14T13:26:09;25.40;;;4.50;;
26634;SDS011;14490;54.208;37.686;2023-12-14T13:28:37;15.07;;;3.10;;
26634;SDS011;14490;54.208;37.686;2023-12-14T13:31:04;15.50;;;3.00;;
26634;SDS011;14490;54.208;37.686;2023-12-14T13:33:33;22.65;;;2.97;;
26634;SDS011;14490;54.208;37.686;2023-12-14T13:36:00;14.98;;;3.60;;
26634;SDS011;14490;54.208;37.686;2023-12-14T13:38:28;22.50;;;4.10;;
26634;SDS011;14490;54.208;37.686;2023-12-14T13:40:58;35.45;;;4.45;;
26634;SDS011;14490;54.208;37.686;2023-12-14T13:43:28;28.08;;;4.05;;
26634;SDS011;14490;54.208;37.686;2023-12-14T13:45:55;25.52;;;3.90;;
26634;SDS011;14490;54.208;37.686;2023-12-14T13:48:23;20.10;;;4.65;;
26634;SDS011;14490;54.208;37.686;2023-12-14T13:50:52;18.58;;;3.88;;
26634;SDS011;14490;54.208;37.686;2023-12-14T13:53:20;39.95;;;5.53;;
26634;SDS011;14490;54.208;37.686;2023-12-14T13:55:47;34.53;;;4.35;;
26634;SDS011;14490;54.208;37.686;2023-12-14T13:58:15;38.70;;;5.03;;
26634;SDS011;14490;54.208;37.686;2023-12-14T14:00:43;29.48;;;4.63;;
26634;SDS011;14490;54.208;37.686;2023-12-14T14:03:10;26.83;;;4.57;;
26634;SDS011;14490;54.208;37.686;2023-12-14T14:05:38;31.30;;;4.97;;
26634;SDS011;14490;54.208;37.686;2023-12-14T14:08:07;32.83;;;3.97;;
26634;SDS011;14490;54.208;37.686;2023-12-14T14:10:34;28.70;;;4.80;;
26634;SDS011;14490;54.208;37.686;2023-12-14T14:13:01;11.45;;;3.83;;
26634;SDS011;14490;54.208;37.686;2023-12-14T14:15:29;17.35;;;4.15;;
26634;SDS011;14490;54.208;37.686;2023-12-14T14:17:56;21.42;;;5.60;;
26634;SDS011;14490;54.208;37.686;2023-12-14T14:20:24;27.83;;;4.53;;
26634;SDS011;14490;54.208;37.686;2023-12-14T14:23:01;19.27;;;4.22;;
26634;SDS011;14490;54.208;37.686;2023-12-14T14:25:30;47.33;;;5.63;;
26634;SDS011;14490;54.208;37.686;2023-12-14T14:27:57;59.17;;;7.82;;
26634;SDS011;14490;54.208;37.686;2023-12-14T14:30:25;45.95;;;4.22;;
26634;SDS011;14490;54.208;37.686;2023-12-14T14:32:52;33.47;;;4.80;;
26634;SDS011;14490;54.208;37.686;2023-12-14T14:35:20;18.25;;;3.33;;
26634;SDS011;14490;54.208;37.686;2023-12-14T14:37:48;22.30;;;4.50;;
26634;SDS011;14490;54.208;37.686;2023-12-14T14:40:16;34.15;;;5.35;;